sensor_id;sensor_type;location;lat;lon;timestamp;P1;durP1;ratioP1;P2;durP2;ratioP2
68457;SDS011;65384;52.016;5.428;2023-06-04T00:01:52;5.50;;;1.70;;
68457;SDS011;65384;52.016;5.428;2023-06-04T00:04:17;5.93;;;1.77;;
68457;SDS011;65384;52.016;5.428;2023-06-04T00:06:42;4.95;;;1.45;;
68457;SDS011;65384;52.016;5.428;2023-06-04T00:09:08;4.07;;;1.60;;
68457;SDS011;65384;52.016;5.428;2023-06-04T00:11:34;7.38;;;1.70;;
68457;SDS011;65384;52.016;5.428;2023-06-04T00:14:00;3.35;;;1.70;;
68457;SDS011;65384;52.016;5.428;2023-06-04T00:16:25;3.38;;;1.58;;
68457;SDS011;65384;52.016;5.428;2023-06-04T00:18:51;4.43;;;1.80;;
68457;SDS011;65384;52.016;5.428;2023-06-04T00:21:16;6.07;;;1.60;;
68457;SDS011;65384;52.016;5.428;2023-06-04T00:23:41;5.10;;;1.83;;
68457;SDS011;65384;52.016;5.428;2023-06-04T00:26:07;3.25;;;1.70;;
68457;SDS011;65384;52.016;5.428;2023-06-04T00:28:32;5.93;;;1.60;;
68457;SDS011;65384;52.016;5.428;2023-06-04T00:30:58;3.15;;;1.70;;
68457;SDS011;65384;52.016;5.428;2023-06-04T00:33:23;4.68;;;1.75;;
68457;SDS011;65384;52.016;5.428;2023-06-04T00:35:48;3.30;;;1.67;;
68457;SDS011;65384;52.016;5.428;2023-06-04T00:38:14;3.63;;;1.80;;
68457;SDS011;65384;52.016;5.428;2023-06-04T00:40:39;4.60;;;2.05;;
68457;SDS011;65384;52.016;5.428;2023-06-04T00:43:05;1.92;;;1.50;;
68457;SDS011;65384;52.016;5.428;2023-06-04T00:45:30;4.85;;;1.90;;
68457;SDS011;65384;52.016;5.428;2023-06-04T00:47:56;4.57;;;1.85;;
68457;SDS011;65384;52.016;5.428;2023-06-04T00:50:21;8.38;;;2.10;;
68457;SDS011;65384;52.016;5.428;2023-06-04T00:52:47;6.47;;;1.85;;
68457;SDS011;65384;52.016;5.428;2023-06-04T00:55:14;5.80;;;2.00;;
68457;SDS011;65384;52.016;5.428;2023-06-04T00:57:42;6.30;;;1.90;;
68457;SDS011;65384;52.016;5.428;2023-06-04T01:00:08;3.05;;;1.80;;
68457;SDS011;65384;52.016;5.428;2023-06-04T01:02:34;5.03;;;1.90;;
68457;SDS011;65384;52.016;5.428;2023-06-04T01:05:06;3.30;;;1.88;;
68457;SDS011;65384;52.016;5.428;2023-06-04T01:07:54;3.97;;;1.98;;
68457;SDS011;65384;52.016;5.428;2023-06-04T01:10:20;5.47;;;2.00;;
68457;SDS011;65384;52.016;5.428;2023-06-04T01:12:47;5.18;;;1.90;;
68457;SDS011;65384;52.016;5.428;2023-06-04T01:15:12;6.20;;;1.90;;
68457;SDS011;65384;52.016;5.428;2023-06-04T01:17:58;4.97;;;2.00;;
68457;SDS011;65384;52.016;5.428;2023-06-04T01:20:30;3.17;;;2.08;;
68457;SDS011;65384;52.016;5.428;2023-06-04T01:25:39;6.18;;;2.08;;
68457;SDS011;65384;52.016;5.428;2023-06-04T01:28:07;4.88;;;2.20;;
68457;SDS011;65384;52.016;5.428;2023-06-04T01:30:37;7.95;;;2.03;;
68457;SDS011;65384;52.016;5.428;2023-06-04T01:33:11;3.65;;;1.90;;
68457;SDS011;65384;52.016;5.428;2023-06-04T01:35:37;4.68;;;2.20;;
68457;SDS011;65384;52.016;5.428;2023-06-04T01:38:02;5.78;;;2.20;;
68457;SDS011;65384;52.016;5.428;2023-06-04T01:40:28;5.15;;;2.17;;
68457;SDS011;65384;52.016;5.428;2023-06-04T01:42:54;5.05;;;2.22;;
68457;SDS011;65384;52.016;5.428;2023-06-04T01:45:22;4.10;;;2.13;;
68457;SDS011;65384;52.016;5.428;2023-06-04T01:47:48;4.30;;;2.03;;
68457;SDS011;65384;52.016;5.428;2023-06-04T01:50:14;5.63;;;2.03;;
68457;SDS011;65384;52.016;5.428;2023-06-04T01:52:40;5.07;;;1.90;;
68457;SDS011;65384;52.016;5.428;2023-06-04T01:55:06;6.32;;;1.95;;
68457;SDS011;65384;52.016;5.428;2023-06-04T01:57:35;3.10;;;1.75;;
68457;SDS011;65384;52.016;5.428;2023-06-04T02:00:01;4.10;;;2.15;;
68457;SDS011;65384;52.016;5.428;2023-06-04T02:02:28;5.47;;;1.98;;
68457;SDS011;65384;52.016;5.428;2023-06-04T02:04:54;5.53;;;2.22;;
68457;SDS011;65384;52.016;5.428;2023-06-04T02:07:19;6.70;;;2.30;;
68457;SDS011;65384;52.016;5.428;2023-06-04T02:09:46;4.35;;;2.15;;
68457;SDS011;65384;52.016;5.428;2023-06-04T02:12:11;5.25;;;2.17;;
68457;SDS011;65384;52.016;5.428;2023-06-04T02:14:37;5.05;;;2.20;;
68457;SDS011;65384;52.016;5.428;2023-06-04T02:17:03;4.53;;;2.00;;
68457;SDS011;65384;52.016;5.428;2023-06-04T02:19:29;4.43;;;2.13;;
68457;SDS011;65384;52.016;5.428;2023-06-04T02:21:58;4.72;;;2.20;;
68457;SDS011;65384;52.016;5.428;2023-06-04T02:24:23;5.78;;;2.20;;
68457;SDS011;65384;52.016;5.428;2023-06-04T02:26:49;4.43;;;2.00;;
68457;SDS011;65384;52.016;5.428;2023-06-04T02:29:14;5.47;;;2.05;;
68457;SDS011;65384;52.016;5.428;2023-06-04T02:31:40;5.43;;;2.10;;
68457;SDS011;65384;52.016;5.428;2023-06-04T02:34:05;3.55;;;2.00;;
68457;SDS011;65384;52.016;5.428;2023-06-04T02:36:30;4.03;;;2.10;;
68457;SDS011;65384;52.016;5.428;2023-06-04T02:38:56;3.28;;;1.98;;
68457;SDS011;65384;52.016;5.428;2023-06-04T02:41:21;3.40;;;2.00;;
68457;SDS011;65384;52.016;5.428;2023-06-04T02:43:47;3.92;;;2.00;;
68457;SDS011;65384;52.016;5.428;2023-06-04T02:46:13;4.35;;;2.03;;
68457;SDS011;65384;52.016;5.428;2023-06-04T02:48:38;4.03;;;2.20;;
68457;SDS011;65384;52.016;5.428;2023-06-04T02:51:04;4.40;;;2.08;;
68457;SDS011;65384;52.016;5.428;2023-06-04T02:53:30;5.25;;;2.00;;
68457;SDS011;65384;52.016;5.428;2023-06-04T02:55:55;3.63;;;2.20;;
68457;SDS011;65384;52.016;5.428;2023-06-04T02:58:21;5.97;;;2.30;;
68457;SDS011;65384;52.016;5.428;2023-06-04T03:00:51;4.45;;;1.90;;
68457;SDS011;65384;52.016;5.428;2023-06-04T03:03:17;6.38;;;2.20;;
68457;SDS011;65384;52.016;5.428;2023-06-04T03:05:43;5.40;;;1.90;;
68457;SDS011;65384;52.016;5.428;2023-06-04T03:08:08;4.35;;;2.08;;
68457;SDS011;65384;52.016;5.428;2023-06-04T03:10:33;4.53;;;2.20;;
68457;SDS011;65384;52.016;5.428;2023-06-04T03:12:59;4.20;;;2.42;;
68457;SDS011;65384;52.016;5.428;2023-06-04T03:15:24;4.70;;;1.80;;
68457;SDS011;65384;52.016;5.428;2023-06-04T03:17:50;3.53;;;2.00;;
68457;SDS011;65384;52.016;5.428;2023-06-04T03:20:16;3.78;;;2.10;;
68457;SDS011;65384;52.016;5.428;2023-06-04T03:22:41;3.50;;;2.00;;
68457;SDS011;65384;52.016;5.428;2023-06-04T03:25:07;5.22;;;2.25;;
68457;SDS011;65384;52.016;5.428;2023-06-04T03:27:33;4.75;;;2.30;;
68457;SDS011;65384;52.016;5.428;2023-06-04T03:29:58;4.68;;;2.35;;
68457;SDS011;65384;52.016;5.428;2023-06-04T03:32:23;4.40;;;2.20;;
68457;SDS011;65384;52.016;5.428;2023-06-04T03:34:49;4.55;;;2.20;;
68457;SDS011;65384;52.016;5.428;2023-06-04T03:37:14;4.28;;;1.95;;
68457;SDS011;65384;52.016;5.428;2023-06-04T03:39:41;4.20;;;1.90;;
68457;SDS011;65384;52.016;5.428;2023-06-04T03:42:06;4.32;;;2.15;;
68457;SDS011;65384;52.016;5.428;2023-06-04T03:44:32;3.63;;;1.90;;
68457;SDS011;65384;52.016;5.428;2023-06-04T03:46:57;6.25;;;2.20;;
68457;SDS011;65384;52.016;5.428;2023-06-04T03:49:22;5.90;;;2.30;;
68457;SDS011;65384;52.016;5.428;2023-06-04T03:51:48;5.47;;;2.17;;
68457;SDS011;65384;52.016;5.428;2023-06-04T03:54:14;6.05;;;2.30;;
68457;SDS011;65384;52.016;5.428;2023-06-04T03:56:42;4.60;;;2.10;;
68457;SDS011;65384;52.016;5.428;2023-06-04T03:59:08;5.20;;;2.20;;
68457;SDS011;65384;52.016;5.428;2023-06-04T04:01:34;4.38;;;2.13;;
68457;SDS011;65384;52.016;5.428;2023-06-04T04:03:59;8.23;;;2.10;;
68457;SDS011;65384;52.016;5.428;2023-06-04T04:06:25;5.72;;;2.38;;
68457;SDS011;65384;52.016;5.428;2023-06-04T04:08:50;4.38;;;2.60;;
68457;SDS011;65384;52.016;5.428;2023-06-04T04:11:15;6.63;;;2.47;;
68457;SDS011;65384;52.016;5.428;2023-06-04T04:13:41;4.45;;;2.33;;
68457;SDS011;65384;52.016;5.428;2023-06-04T04:16:07;3.63;;;2.20;;
68457;SDS011;65384;52.016;5.428;2023-06-04T04:18:33;4.72;;;2.33;;
68457;SDS011;65384;52.016;5.428;2023-06-04T04:20:59;4.95;;;2.40;;
68457;SDS011;65384;52.016;5.428;2023-06-04T04:23:25;7.00;;;2.28;;
68457;SDS011;65384;52.016;5.428;2023-06-04T04:25:52;5.30;;;2.28;;
68457;SDS011;65384;52.016;5.428;2023-06-04T04:28:18;6.88;;;2.50;;
68457;SDS011;65384;52.016;5.428;2023-06-04T04:30:44;5.25;;;2.55;;
68457;SDS011;65384;52.016;5.428;2023-06-04T04:33:11;5.45;;;2.53;;
68457;SDS011;65384;52.016;5.428;2023-06-04T04:35:40;8.50;;;2.55;;
68457;SDS011;65384;52.016;5.428;2023-06-04T04:38:07;4.82;;;2.50;;
68457;SDS011;65384;52.016;5.428;2023-06-04T04:40:33;6.25;;;2.70;;
68457;SDS011;65384;52.016;5.428;2023-06-04T04:42:58;7.40;;;2.70;;
68457;SDS011;65384;52.016;5.428;2023-06-04T04:45:23;5.07;;;2.70;;
68457;SDS011;65384;52.016;5.428;2023-06-04T04:47:49;5.38;;;2.72;;
68457;SDS011;65384;52.016;5.428;2023-06-04T04:50:16;6.47;;;2.80;;
68457;SDS011;65384;52.016;5.428;2023-06-04T04:52:41;6.78;;;2.70;;
68457;SDS011;65384;52.016;5.428;2023-06-04T04:55:07;4.10;;;2.40;;
68457;SDS011;65384;52.016;5.428;2023-06-04T04:57:32;4.65;;;2.50;;
68457;SDS011;65384;52.016;5.428;2023-06-04T04:59:58;6.68;;;2.67;;
68457;SDS011;65384;52.016;5.428;2023-06-04T05:02:23;5.10;;;2.83;;
68457;SDS011;65384;52.016;5.428;2023-06-04T05:04:49;4.95;;;2.53;;
68457;SDS011;65384;52.016;5.428;2023-06-04T05:07:14;7.70;;;2.42;;
68457;SDS011;65384;52.016;5.428;2023-06-04T05:09:40;8.18;;;2.75;;
68457;SDS011;65384;52.016;5.428;2023-06-04T05:12:05;6.57;;;2.83;;
68457;SDS011;65384;52.016;5.428;2023-06-04T05:14:31;5.82;;;2.78;;
68457;SDS011;65384;52.016;5.428;2023-06-04T05:16:57;5.72;;;2.72;;
68457;SDS011;65384;52.016;5.428;2023-06-04T05:19:22;7.55;;;2.60;;
68457;SDS011;65384;52.016;5.428;2023-06-04T05:21:49;5.78;;;2.70;;
68457;SDS011;65384;52.016;5.428;2023-06-04T05:24:14;6.50;;;2.55;;
68457;SDS011;65384;52.016;5.428;2023-06-04T05:26:40;5.72;;;2.58;;
68457;SDS011;65384;52.016;5.428;2023-06-04T05:29:05;7.22;;;2.90;;
68457;SDS011;65384;52.016;5.428;2023-06-04T05:31:32;5.72;;;2.75;;
68457;SDS011;65384;52.016;5.428;2023-06-04T05:33:58;4.60;;;2.47;;
68457;SDS011;65384;52.016;5.428;2023-06-04T05:36:26;5.63;;;2.42;;
68457;SDS011;65384;52.016;5.428;2023-06-04T05:38:52;7.40;;;2.70;;
68457;SDS011;65384;52.016;5.428;2023-06-04T05:41:22;6.15;;;2.50;;
68457;SDS011;65384;52.016;5.428;2023-06-04T05:43:48;7.72;;;2.80;;
68457;SDS011;65384;52.016;5.428;2023-06-04T05:46:14;8.20;;;2.70;;
68457;SDS011;65384;52.016;5.428;2023-06-04T05:48:39;8.15;;;2.63;;
68457;SDS011;65384;52.016;5.428;2023-06-04T05:51:05;6.28;;;2.50;;
68457;SDS011;65384;52.016;5.428;2023-06-04T05:53:30;8.45;;;2.30;;
68457;SDS011;65384;52.016;5.428;2023-06-04T05:55:56;5.78;;;2.38;;
68457;SDS011;65384;52.016;5.428;2023-06-04T05:58:21;8.55;;;2.28;;
68457;SDS011;65384;52.016;5.428;2023-06-04T06:00:46;7.82;;;2.42;;
68457;SDS011;65384;52.016;5.428;2023-06-04T06:03:13;4.57;;;2.28;;
68457;SDS011;65384;52.016;5.428;2023-06-04T06:05:41;8.07;;;2.53;;
68457;SDS011;65384;52.016;5.428;2023-06-04T06:08:07;7.07;;;2.67;;
68457;SDS011;65384;52.016;5.428;2023-06-04T06:10:33;6.70;;;2.65;;
68457;SDS011;65384;52.016;5.428;2023-06-04T06:12:58;4.05;;;2.28;;
68457;SDS011;65384;52.016;5.428;2023-06-04T06:15:25;13.10;;;3.03;;
68457;SDS011;65384;52.016;5.428;2023-06-04T06:17:51;5.53;;;2.40;;
68457;SDS011;65384;52.016;5.428;2023-06-04T06:20:17;9.43;;;2.25;;
68457;SDS011;65384;52.016;5.428;2023-06-04T06:22:43;5.43;;;2.45;;
68457;SDS011;65384;52.016;5.428;2023-06-04T06:25:09;7.07;;;2.55;;
68457;SDS011;65384;52.016;5.428;2023-06-04T06:27:37;3.85;;;2.05;;
68457;SDS011;65384;52.016;5.428;2023-06-04T06:30:03;6.65;;;2.22;;
68457;SDS011;65384;52.016;5.428;2023-06-04T06:32:30;5.78;;;2.20;;
68457;SDS011;65384;52.016;5.428;2023-06-04T06:34:55;5.10;;;1.95;;
68457;SDS011;65384;52.016;5.428;2023-06-04T06:37:20;4.85;;;2.13;;
68457;SDS011;65384;52.016;5.428;2023-06-04T06:39:46;6.90;;;2.47;;
68457;SDS011;65384;52.016;5.428;2023-06-04T06:42:11;6.80;;;2.20;;
68457;SDS011;65384;52.016;5.428;2023-06-04T06:44:37;5.78;;;2.10;;
68457;SDS011;65384;52.016;5.428;2023-06-04T06:47:03;6.80;;;2.20;;
68457;SDS011;65384;52.016;5.428;2023-06-04T06:49:28;5.80;;;2.20;;
68457;SDS011;65384;52.016;5.428;2023-06-04T06:51:54;5.05;;;2.20;;
68457;SDS011;65384;52.016;5.428;2023-06-04T06:54:19;5.30;;;1.98;;
68457;SDS011;65384;52.016;5.428;2023-06-04T06:56:47;4.07;;;2.03;;
68457;SDS011;65384;52.016;5.428;2023-06-04T06:59:15;5.50;;;2.10;;
68457;SDS011;65384;52.016;5.428;2023-06-04T07:01:40;4.63;;;1.90;;
68457;SDS011;65384;52.016;5.428;2023-06-04T07:04:06;4.70;;;2.00;;
68457;SDS011;65384;52.016;5.428;2023-06-04T07:06:32;5.70;;;1.98;;
68457;SDS011;65384;52.016;5.428;2023-06-04T07:08:58;5.25;;;1.77;;
68457;SDS011;65384;52.016;5.428;2023-06-04T07:11:24;4.88;;;2.00;;
68457;SDS011;65384;52.016;5.428;2023-06-04T07:13:50;4.32;;;1.90;;
68457;SDS011;65384;52.016;5.428;2023-06-04T07:16:16;5.03;;;2.03;;
68457;SDS011;65384;52.016;5.428;2023-06-04T07:18:41;7.63;;;2.00;;
68457;SDS011;65384;52.016;5.428;2023-06-04T07:21:07;4.72;;;1.80;;
68457;SDS011;65384;52.016;5.428;2023-06-04T07:23:32;4.95;;;2.00;;
68457;SDS011;65384;52.016;5.428;2023-06-04T07:25:57;5.25;;;2.08;;
68457;SDS011;65384;52.016;5.428;2023-06-04T07:28:23;3.03;;;1.70;;
68457;SDS011;65384;52.016;5.428;2023-06-04T07:30:48;5.22;;;2.15;;
68457;SDS011;65384;52.016;5.428;2023-06-04T07:33:14;8.10;;;2.38;;
68457;SDS011;65384;52.016;5.428;2023-06-04T07:35:39;6.75;;;1.98;;
68457;SDS011;65384;52.016;5.428;2023-06-04T07:38:05;5.30;;;1.67;;
68457;SDS011;65384;52.016;5.428;2023-06-04T07:40:30;6.25;;;1.98;;
68457;SDS011;65384;52.016;5.428;2023-06-04T07:42:55;5.72;;;2.05;;
68457;SDS011;65384;52.016;5.428;2023-06-04T07:45:21;8.70;;;1.85;;
68457;SDS011;65384;52.016;5.428;2023-06-04T07:47:46;4.63;;;1.90;;
68457;SDS011;65384;52.016;5.428;2023-06-04T07:50:12;6.47;;;1.90;;
68457;SDS011;65384;52.016;5.428;2023-06-04T07:52:37;5.28;;;1.98;;
68457;SDS011;65384;52.016;5.428;2023-06-04T07:55:02;6.72;;;1.90;;
68457;SDS011;65384;52.016;5.428;2023-06-04T07:57:28;3.63;;;1.83;;
68457;SDS011;65384;52.016;5.428;2023-06-04T07:59:54;7.45;;;1.98;;
68457;SDS011;65384;52.016;5.428;2023-06-04T08:02:21;5.43;;;2.10;;
68457;SDS011;65384;52.016;5.428;2023-06-04T08:04:47;4.00;;;1.90;;
68457;SDS011;65384;52.016;5.428;2023-06-04T08:07:12;5.28;;;1.88;;
68457;SDS011;65384;52.016;5.428;2023-06-04T08:09:38;5.35;;;1.90;;
68457;SDS011;65384;52.016;5.428;2023-06-04T08:12:03;6.57;;;1.98;;
68457;SDS011;65384;52.016;5.428;2023-06-04T08:14:29;3.90;;;1.70;;
68457;SDS011;65384;52.016;5.428;2023-06-04T08:16:55;4.45;;;1.90;;
68457;SDS011;65384;52.016;5.428;2023-06-04T08:19:20;4.25;;;1.77;;
68457;SDS011;65384;52.016;5.428;2023-06-04T08:21:46;3.30;;;1.58;;
68457;SDS011;65384;52.016;5.428;2023-06-04T08:24:12;9.80;;;1.70;;
68457;SDS011;65384;52.016;5.428;2023-06-04T08:26:38;6.88;;;1.80;;
68457;SDS011;65384;52.016;5.428;2023-06-04T08:29:03;5.63;;;1.90;;
68457;SDS011;65384;52.016;5.428;2023-06-04T08:31:31;5.40;;;1.88;;
68457;SDS011;65384;52.016;5.428;2023-06-04T08:33:57;4.72;;;1.80;;
68457;SDS011;65384;52.016;5.428;2023-06-04T08:36:22;4.32;;;1.70;;
68457;SDS011;65384;52.016;5.428;2023-06-04T08:38:48;7.72;;;1.60;;
68457;SDS011;65384;52.016;5.428;2023-06-04T08:41:17;2.72;;;1.73;;
68457;SDS011;65384;52.016;5.428;2023-06-04T08:43:49;4.28;;;1.88;;
68457;SDS011;65384;52.016;5.428;2023-06-04T08:46:15;3.80;;;1.73;;
68457;SDS011;65384;52.016;5.428;2023-06-04T08:48:40;3.13;;;1.50;;
68457;SDS011;65384;52.016;5.428;2023-06-04T08:51:06;5.93;;;1.73;;
68457;SDS011;65384;52.016;5.428;2023-06-04T08:53:34;4.10;;;1.50;;
68457;SDS011;65384;52.016;5.428;2023-06-04T08:56:01;3.85;;;1.60;;
68457;SDS011;65384;52.016;5.428;2023-06-04T08:58:29;4.72;;;1.30;;
68457;SDS011;65384;52.016;5.428;2023-06-04T09:00:56;4.28;;;1.60;;
68457;SDS011;65384;52.016;5.428;2023-06-04T09:03:21;4.57;;;1.50;;
68457;SDS011;65384;52.016;5.428;2023-06-04T09:05:49;3.25;;;1.35;;
68457;SDS011;65384;52.016;5.428;2023-06-04T09:08:16;1.90;;;1.20;;
68457;SDS011;65384;52.016;5.428;2023-06-04T09:10:42;2.58;;;1.30;;
68457;SDS011;65384;52.016;5.428;2023-06-04T09:13:10;2.97;;;1.30;;
68457;SDS011;65384;52.016;5.428;2023-06-04T09:15:36;4.13;;;1.38;;
68457;SDS011;65384;52.016;5.428;2023-06-04T09:18:01;3.95;;;1.35;;
68457;SDS011;65384;52.016;5.428;2023-06-04T09:20:27;2.35;;;1.25;;
68457;SDS011;65384;52.016;5.428;2023-06-04T09:22:53;3.05;;;1.40;;
68457;SDS011;65384;52.016;5.428;2023-06-04T09:25:25;5.72;;;1.20;;
68457;SDS011;65384;52.016;5.428;2023-06-04T09:27:56;4.28;;;1.15;;
68457;SDS011;65384;52.016;5.428;2023-06-04T09:30:23;4.22;;;1.30;;
68457;SDS011;65384;52.016;5.428;2023-06-04T09:32:49;2.55;;;1.33;;
68457;SDS011;65384;52.016;5.428;2023-06-04T09:35:15;3.45;;;1.17;;
68457;SDS011;65384;52.016;5.428;2023-06-04T09:37:42;2.38;;;1.10;;
68457;SDS011;65384;52.016;5.428;2023-06-04T09:40:16;3.30;;;1.20;;
68457;SDS011;65384;52.016;5.428;2023-06-04T09:42:45;3.13;;;1.00;;
68457;SDS011;65384;52.016;5.428;2023-06-04T09:45:25;2.72;;;1.10;;
68457;SDS011;65384;52.016;5.428;2023-06-04T09:47:51;1.98;;;1.00;;
68457;SDS011;65384;52.016;5.428;2023-06-04T09:50:17;1.40;;;1.00;;
68457;SDS011;65384;52.016;5.428;2023-06-04T09:52:50;2.95;;;1.00;;
68457;SDS011;65384;52.016;5.428;2023-06-04T09:55:17;2.22;;;1.00;;
68457;SDS011;65384;52.016;5.428;2023-06-04T09:57:47;3.38;;;0.98;;
68457;SDS011;65384;52.016;5.428;2023-06-04T10:00:16;2.55;;;1.00;;
68457;SDS011;65384;52.016;5.428;2023-06-04T10:02:42;3.90;;;0.95;;
68457;SDS011;65384;52.016;5.428;2023-06-04T10:05:09;1.23;;;0.80;;
68457;SDS011;65384;52.016;5.428;2023-06-04T10:07:38;3.70;;;0.82;;
68457;SDS011;65384;52.016;5.428;2023-06-04T10:10:05;2.38;;;1.10;;
68457;SDS011;65384;52.016;5.428;2023-06-04T10:12:31;1.73;;;1.00;;
68457;SDS011;65384;52.016;5.428;2023-06-04T10:15:07;2.17;;;0.90;;
68457;SDS011;65384;52.016;5.428;2023-06-04T10:17:36;3.22;;;0.95;;
68457;SDS011;65384;52.016;5.428;2023-06-04T10:20:02;2.83;;;1.00;;
68457;SDS011;65384;52.016;5.428;2023-06-04T10:22:34;2.92;;;0.95;;
68457;SDS011;65384;52.016;5.428;2023-06-04T10:25:00;1.95;;;1.00;;
68457;SDS011;65384;52.016;5.428;2023-06-04T10:27:28;3.03;;;0.80;;
68457;SDS011;65384;52.016;5.428;2023-06-04T10:29:55;1.27;;;0.90;;
68457;SDS011;65384;52.016;5.428;2023-06-04T10:32:21;3.33;;;1.08;;
68457;SDS011;65384;52.016;5.428;2023-06-04T10:34:46;4.55;;;1.10;;
68457;SDS011;65384;52.016;5.428;2023-06-04T10:37:21;1.42;;;1.00;;
68457;SDS011;65384;52.016;5.428;2023-06-04T10:39:54;2.42;;;1.13;;
68457;SDS011;65384;52.016;5.428;2023-06-04T10:42:21;1.95;;;1.00;;
68457;SDS011;65384;52.016;5.428;2023-06-04T10:44:48;1.70;;;0.90;;
68457;SDS011;65384;52.016;5.428;2023-06-04T10:49:50;1.70;;;1.20;;
68457;SDS011;65384;52.016;5.428;2023-06-04T10:52:16;4.00;;;1.05;;
68457;SDS011;65384;52.016;5.428;2023-06-04T10:54:42;3.00;;;1.00;;
68457;SDS011;65384;52.016;5.428;2023-06-04T10:57:11;2.35;;;1.23;;
68457;SDS011;65384;52.016;5.428;2023-06-04T10:59:37;3.15;;;1.10;;
68457;SDS011;65384;52.016;5.428;2023-06-04T11:02:06;1.83;;;1.00;;
68457;SDS011;65384;52.016;5.428;2023-06-04T11:04:32;2.47;;;0.90;;
68457;SDS011;65384;52.016;5.428;2023-06-04T11:07:01;1.60;;;0.90;;
68457;SDS011;65384;52.016;5.428;2023-06-04T11:09:34;3.72;;;1.10;;
68457;SDS011;65384;52.016;5.428;2023-06-04T11:12:00;3.50;;;1.10;;
68457;SDS011;65384;52.016;5.428;2023-06-04T11:14:26;4.25;;;1.20;;
68457;SDS011;65384;52.016;5.428;2023-06-04T11:16:51;1.70;;;1.00;;
68457;SDS011;65384;52.016;5.428;2023-06-04T11:19:17;3.55;;;0.95;;
68457;SDS011;65384;52.016;5.428;2023-06-04T11:21:43;1.92;;;1.05;;
68457;SDS011;65384;52.016;5.428;2023-06-04T11:24:08;2.78;;;1.13;;
68457;SDS011;65384;52.016;5.428;2023-06-04T11:26:34;7.07;;;1.15;;
68457;SDS011;65384;52.016;5.428;2023-06-04T11:29:01;2.30;;;1.02;;
68457;SDS011;65384;52.016;5.428;2023-06-04T11:31:39;4.07;;;1.23;;
68457;SDS011;65384;52.016;5.428;2023-06-04T11:34:07;6.18;;;1.20;;
68457;SDS011;65384;52.016;5.428;2023-06-04T11:36:32;1.70;;;1.00;;
68457;SDS011;65384;52.016;5.428;2023-06-04T11:38:58;2.38;;;1.25;;
68457;SDS011;65384;52.016;5.428;2023-06-04T11:41:27;4.97;;;0.98;;
68457;SDS011;65384;52.016;5.428;2023-06-04T11:44:00;2.80;;;1.10;;
68457;SDS011;65384;52.016;5.428;2023-06-04T11:46:28;1.83;;;1.20;;
68457;SDS011;65384;52.016;5.428;2023-06-04T11:48:53;2.45;;;1.10;;
68457;SDS011;65384;52.016;5.428;2023-06-04T11:51:19;2.55;;;1.25;;
68457;SDS011;65384;52.016;5.428;2023-06-04T11:53:46;2.38;;;1.27;;
68457;SDS011;65384;52.016;5.428;2023-06-04T11:56:11;4.25;;;1.10;;
68457;SDS011;65384;52.016;5.428;2023-06-04T11:58:37;2.90;;;1.10;;
68457;SDS011;65384;52.016;5.428;2023-06-04T12:01:03;3.20;;;1.10;;
68457;SDS011;65384;52.016;5.428;2023-06-04T12:03:36;2.78;;;1.10;;
68457;SDS011;65384;52.016;5.428;2023-06-04T12:06:12;5.45;;;1.23;;
68457;SDS011;65384;52.016;5.428;2023-06-04T12:08:48;2.25;;;1.10;;
68457;SDS011;65384;52.016;5.428;2023-06-04T12:13:59;2.72;;;0.98;;
68457;SDS011;65384;52.016;5.428;2023-06-04T12:16:31;4.43;;;1.30;;
68457;SDS011;65384;52.016;5.428;2023-06-04T12:19:09;2.30;;;1.00;;
68457;SDS011;65384;52.016;5.428;2023-06-04T12:21:35;2.72;;;1.17;;
68457;SDS011;65384;52.016;5.428;2023-06-04T12:24:11;4.20;;;1.30;;
68457;SDS011;65384;52.016;5.428;2023-06-04T12:26:38;2.75;;;1.10;;
68457;SDS011;65384;52.016;5.428;2023-06-04T12:29:12;3.00;;;1.23;;
68457;SDS011;65384;52.016;5.428;2023-06-04T12:31:42;2.97;;;1.15;;
68457;SDS011;65384;52.016;5.428;2023-06-04T12:34:09;2.50;;;1.10;;
68457;SDS011;65384;52.016;5.428;2023-06-04T12:36:35;1.63;;;1.20;;
68457;SDS011;65384;52.016;5.428;2023-06-04T12:39:02;4.13;;;1.23;;
68457;SDS011;65384;52.016;5.428;2023-06-04T12:41:28;2.90;;;1.30;;
68457;SDS011;65384;52.016;5.428;2023-06-04T12:43:55;3.13;;;1.15;;
68457;SDS011;65384;52.016;5.428;2023-06-04T12:46:21;3.70;;;1.08;;
68457;SDS011;65384;52.016;5.428;2023-06-04T12:48:47;3.38;;;1.40;;
68457;SDS011;65384;52.016;5.428;2023-06-04T12:51:13;2.95;;;1.20;;
68457;SDS011;65384;52.016;5.428;2023-06-04T12:53:39;2.03;;;1.17;;
68457;SDS011;65384;52.016;5.428;2023-06-04T12:56:05;2.90;;;1.20;;
68457;SDS011;65384;52.016;5.428;2023-06-04T12:58:30;4.72;;;1.20;;
68457;SDS011;65384;52.016;5.428;2023-06-04T13:00:56;2.00;;;1.10;;
68457;SDS011;65384;52.016;5.428;2023-06-04T13:03:22;3.30;;;1.23;;
68457;SDS011;65384;52.016;5.428;2023-06-04T13:05:47;1.85;;;1.30;;
68457;SDS011;65384;52.016;5.428;2023-06-04T13:08:13;3.15;;;1.40;;
68457;SDS011;65384;52.016;5.428;2023-06-04T13:10:38;2.58;;;1.27;;
68457;SDS011;65384;52.016;5.428;2023-06-04T13:13:04;2.70;;;1.25;;
68457;SDS011;65384;52.016;5.428;2023-06-04T13:15:29;2.70;;;1.35;;
68457;SDS011;65384;52.016;5.428;2023-06-04T13:17:55;2.50;;;1.10;;
68457;SDS011;65384;52.016;5.428;2023-06-04T13:20:20;1.25;;;1.00;;
68457;SDS011;65384;52.016;5.428;2023-06-04T13:22:46;3.47;;;1.35;;
68457;SDS011;65384;52.016;5.428;2023-06-04T13:25:12;4.53;;;1.27;;
68457;SDS011;65384;52.016;5.428;2023-06-04T13:27:37;2.63;;;1.20;;
68457;SDS011;65384;52.016;5.428;2023-06-04T13:30:03;1.35;;;1.10;;
68457;SDS011;65384;52.016;5.428;2023-06-04T13:32:29;3.65;;;1.35;;
68457;SDS011;65384;52.016;5.428;2023-06-04T13:34:54;5.30;;;1.40;;
68457;SDS011;65384;52.016;5.428;2023-06-04T13:37:20;3.53;;;1.35;;
68457;SDS011;65384;52.016;5.428;2023-06-04T13:39:45;2.80;;;1.60;;
68457;SDS011;65384;52.016;5.428;2023-06-04T13:42:11;2.22;;;1.20;;
68457;SDS011;65384;52.016;5.428;2023-06-04T13:44:37;4.75;;;1.50;;
68457;SDS011;65384;52.016;5.428;2023-06-04T13:47:02;5.85;;;1.20;;
68457;SDS011;65384;52.016;5.428;2023-06-04T13:49:29;3.05;;;1.40;;
68457;SDS011;65384;52.016;5.428;2023-06-04T13:51:54;5.82;;;1.50;;
68457;SDS011;65384;52.016;5.428;2023-06-04T13:54:19;3.47;;;1.52;;
68457;SDS011;65384;52.016;5.428;2023-06-04T13:56:45;2.40;;;1.70;;
68457;SDS011;65384;52.016;5.428;2023-06-04T13:59:11;3.83;;;1.50;;
68457;SDS011;65384;52.016;5.428;2023-06-04T14:01:36;3.05;;;1.38;;
68457;SDS011;65384;52.016;5.428;2023-06-04T14:04:02;4.10;;;1.45;;
68457;SDS011;65384;52.016;5.428;2023-06-04T14:06:31;3.10;;;1.20;;
68457;SDS011;65384;52.016;5.428;2023-06-04T14:08:57;5.22;;;1.30;;
68457;SDS011;65384;52.016;5.428;2023-06-04T14:11:22;3.28;;;1.25;;
68457;SDS011;65384;52.016;5.428;2023-06-04T14:13:47;2.13;;;1.10;;
68457;SDS011;65384;52.016;5.428;2023-06-04T14:16:13;2.63;;;1.33;;
68457;SDS011;65384;52.016;5.428;2023-06-04T14:18:39;3.22;;;1.40;;
68457;SDS011;65384;52.016;5.428;2023-06-04T14:21:05;2.72;;;1.40;;
68457;SDS011;65384;52.016;5.428;2023-06-04T14:23:30;6.75;;;1.65;;
68457;SDS011;65384;52.016;5.428;2023-06-04T14:25:56;5.70;;;1.40;;
68457;SDS011;65384;52.016;5.428;2023-06-04T14:28:21;5.22;;;1.45;;
68457;SDS011;65384;52.016;5.428;2023-06-04T14:30:46;4.82;;;1.48;;
68457;SDS011;65384;52.016;5.428;2023-06-04T14:33:12;7.32;;;1.63;;
68457;SDS011;65384;52.016;5.428;2023-06-04T14:35:37;2.83;;;1.40;;
68457;SDS011;65384;52.016;5.428;2023-06-04T14:38:04;3.03;;;1.38;;
68457;SDS011;65384;52.016;5.428;2023-06-04T14:40:29;3.88;;;1.45;;
68457;SDS011;65384;52.016;5.428;2023-06-04T14:42:55;3.20;;;1.42;;
68457;SDS011;65384;52.016;5.428;2023-06-04T14:45:22;4.78;;;1.40;;
68457;SDS011;65384;52.016;5.428;2023-06-04T14:47:48;6.95;;;1.50;;
68457;SDS011;65384;52.016;5.428;2023-06-04T14:50:15;3.03;;;1.58;;
68457;SDS011;65384;52.016;5.428;2023-06-04T14:52:42;4.90;;;1.30;;